• Join FlightAware (Why Join?)
  • Login
  • US Flag 
05:02PM EDT


 

Airport Tracker/Info


-or-


 

Live Flight TrackerFlight Track Log ✈ SWA1462 ✈ 08-Apr-2013 ✈ KSLC - KPHX

Flight Track Log - Related Links

Times and Time Zones

All times are in EDT time to prevent confusion due to time zone crossing. See the SWA1462 flight status page for this flight to view local times or setup timezone preferences in your user account.

Time Position Orientation Groundspeed Altitude Reporting Facility
EDT Latitude Longitude Course Direction KTS MPH feet Rate Location/Type
01:55PM 40.8161 -112.0194 314° West 160 184 6,100  Level Salt Lake Center
01:55PM 40.8197 -112.0683 276° West 196 226 7,300 1,620 Climbing Salt Lake Center
01:56PM 40.8253 -112.0942 286° West 208 239 7,800 2,580 Climbing Salt Lake Center
01:57PM 40.8094 -112.2178 260° West 294 338 11,300 3,360 Climbing Salt Lake Center
01:58PM 40.7356 -112.2778 212° Southwest 319 367 14,800 3,960 Climbing Salt Lake Center
01:59PM 40.6483 -112.2967 189° South 312 359 19,600 3,780 Climbing Salt Lake Center
02:00PM 40.5644 -112.3097 187° South 305 351 22,700 1,620 Climbing Salt Lake Center
02:01PM 40.4744 -112.3103 180° South 324 373 23,000 120 Climbing Salt Lake Center
02:02PM 40.3847 -112.3122 181° South 322 371 23,000  Level Salt Lake Center
02:03PM 40.2783 -112.3150 181° South 318 366 23,000  Level Salt Lake Center
02:04PM 40.1894 -112.3158 180° South 319 367 23,000  Level Salt Lake Center
02:05PM 40.0986 -112.3186 181° South 325 374 23,000  Level Salt Lake Center
02:06PM 40.0094 -112.3200 181° South 321 369 23,000 480 Level Salt Lake Center
02:07PM 39.9139 -112.3228 181° South 348 400 24,000 1,740 Climbing Salt Lake Center
02:08PM 39.8125 -112.3247 181° South 362 417 26,600 2,400 Climbing Salt Lake Center
02:09PM 39.6842 -112.3289 181° South 385 443 29,000 2,160 Climbing Salt Lake Center
02:10PM 39.5733 -112.3303 181° South 396 456 31,100 1,740 Climbing Salt Lake Center
02:11PM 39.4633 -112.3325 181° South 398 458 32,600 900 Climbing Salt Lake Center
02:12PM 39.3542 -112.3356 181° South 393 452 33,000 180 Climbing Salt Lake Center
02:13PM 39.2456 -112.3386 181° South 390 449 33,000  Level Salt Lake Center
02:14PM 39.1236 -112.3406 181° South 395 455 33,000  Level Salt Lake Center
02:15PM 39.0158 -112.3422 181° South 390 449 33,000  Level Salt Lake Center
02:16PM 38.9078 -112.3456 181° South 388 447 33,000  Level Salt Lake Center
02:17PM 38.7981 -112.3478 181° South 392 451 33,000  Level Salt Lake Center
02:18PM 38.6886 -112.3506 181° South 395 455 33,000  Level Salt Lake Center
02:19PM 38.5556 -112.3539 181° South 398 458 33,000  Level Salt Lake Center
02:20PM 38.4447 -112.3556 181° South 399 459 33,000  Level Salt Lake Center
02:21PM 38.3342 -112.3594 182° South 399 459 33,000  Level Salt Lake Center
02:23PM 38.2231 -112.3608 181° South 399 459 33,000  Level Salt Lake Center
02:24PM 38.1108 -112.3636 181° South 401 461 33,000  Level Salt Lake Center
02:25PM 37.9975 -112.3650 181° South 405 466 33,000  Level Salt Lake Center
02:26PM 37.8842 -112.3664 181° South 405 466 33,000  Level Salt Lake Center
02:27PM 37.7481 -112.3697 181° South 405 466 33,000  Level Salt Lake Center
02:28PM 37.6358 -112.3708 180° South 404 465 33,000  Level Salt Lake Center
02:29PM 37.5233 -112.3725 181° South 402 463 33,000  Level Salt Lake Center
02:30PM 37.4106 -112.3747 181° South 402 463 33,000  Level Salt Lake Center
02:31PM 37.3194 -112.3753 180° South 401 461 33,000  Level Los Angeles Center
02:32PM 37.2078 -112.3783 181° South 401 461 33,000  Level Los Angeles Center
02:33PM 37.0956 -112.3806 181° South 401 461 33,000  Level Los Angeles Center
02:34PM 36.9594 -112.3825 181° South 408 470 33,000  Level Los Angeles Center
02:35PM 36.8464 -112.3856 181° South 407 468 33,000  Level Los Angeles Center
02:36PM 36.7342 -112.3875 181° South 404 465 33,000  Level Los Angeles Center
02:37PM 36.6239 -112.3892 181° South 398 458 33,000  Level Los Angeles Center
02:38PM 36.5133 -112.3931 182° South 397 457 33,000  Level Los Angeles Center
02:39PM 36.4031 -112.3939 180° South 396 456 33,000  Level Los Angeles Center
02:40PM 36.2731 -112.3975 181° South 390 449 33,000  Level Los Angeles Center
02:41PM 36.1647 -112.4042 183° South 389 448 33,000  Level Los Angeles Center
02:42PM 36.0533 -112.4103 183° South 397 457 33,000 -360 Level Los Angeles Center
02:43PM 35.9433 -112.4164 183° South 396 456 32,200 -1,800 Descending Los Angeles Center
02:44PM 35.8006 -112.4206 181° South 396 456 29,000 -1,560 Descending Los Angeles Center
02:45PM 35.6925 -112.4267 183° South 392 451 29,000  Level Los Angeles Center
02:46PM 35.5822 -112.4325 182° South 393 452 29,000  Level Los Angeles Center
02:47PM 35.4717 -112.4372 182° South 396 456 29,000  Level Los Angeles Center
02:48PM 35.3617 -112.4317 178° South 394 453 29,000 -480 Level Los Angeles Center
02:49PM 35.2514 -112.4058 169° South 398 458 28,100 -960 Descending Los Angeles Center
02:50PM 35.1475 -112.3839 170° South 378 435 27,100 -540 Descending Los Angeles Center
02:51PM 35.0333 -112.3603 170° South 348 400 27,000 -420 Descending Los Angeles Center
02:52PM 34.9386 -112.3386 169° South 346 398 26,300 -780 Descending Los Angeles Center
02:54PM 34.8239 -112.3150 170° South 346 398 25,400 -960 Descending Albuquerque Center
02:55PM 34.7378 -112.2953 169° South 342 394 24,300 -720 Descending Albuquerque Center
02:56PM 34.6436 -112.2744 170° South 343 395 24,000 -1,140 Descending Albuquerque Center
02:57PM 34.5481 -112.2536 170° South 347 399 22,000 -1,980 Descending Albuquerque Center
02:58PM 34.4314 -112.2264 169° South 356 410 20,000 -1,020 Descending Albuquerque Center
02:59PM 34.3386 -112.2022 168° South 347 399 20,000 -420 Level Albuquerque Center
03:00PM 34.2497 -112.1789 168° South 333 383 19,200 -1,500 Descending Albuquerque Center
03:01PM 34.1575 -112.1550 168° South 340 391 16,900 -1,800 Descending Albuquerque Center
03:02PM 34.0661 -112.1311 168° South 337 388 15,600 -1,320 Descending Albuquerque Center
03:03PM 33.9856 -112.0906 157° South 319 367 14,200 -1,500 Descending Albuquerque Center
03:04PM 33.8975 -112.0667 167° South 281 323 12,600 -1,500 Descending Albuquerque Center
03:05PM 33.8239 -112.0728 184° South 275 316 11,100 -1,320 Descending Albuquerque Center
03:06PM 33.7528 -112.0467 163° South 270 311 10,000 -540 Descending Albuquerque Center
03:07PM 33.6828 -112.0239 165° South 263 303 10,000 -60 Level Albuquerque Center
03:08PM 33.6131 -112.0133 173° South 258 297 9,900 -540 Descending Albuquerque Center
03:09PM 33.5419 -112.0086 177° South 256 295 9,000 -480 Descending Albuquerque Center
03:10PM 33.4611 -112.0025 176° South 244 281 9,000 -240 Level Albuquerque Center
03:11PM 33.4147 -112.0206 198° South 194 223 8,600 -900 Descending Albuquerque Center
03:12PM 33.3664 -112.0308 190° South 189 217 7,200 -840 Descending Albuquerque Center
03:13PM 33.3536 -111.9681 104° East 211 243 7,000 -240 Descending Albuquerque Center
03:14PM 33.3556 -111.8956 88° East 219 252 6,800 -840 Descending Albuquerque Center
03:15PM 33.3586 -111.8211 87° East 225 259 5,400 -1,260 Descending Albuquerque Center
03:16PM 33.4047 -111.8150 North 210 242 4,200 -1,200 Descending Albuquerque Center
03:17PM 33.4289 -111.8742 296° West 171 197 3,000 -900 Descending Albuquerque Center
03:18PM 33.4286 -111.9278 270° West 160 184 2,400 -720 Descending Albuquerque Center
03:19PM 33.4297 -111.9750 272° West 144 166 1,600 -660 Descending Albuquerque Center
03:20PM 33.4278 -112.0172 267° West 141 162 1,100 -540 Descending Albuquerque Center